sensor_id;sensor_type;location;lat;lon;timestamp;pressure;altitude;pressure_sealevel;temperature;humidity
73748;BME280;62056;52.130;5.428;2022-11-14T00:01:25;101912.47;;;5.56;71.18
73748;BME280;62056;52.130;5.428;2022-11-14T00:03:52;101904.53;;;5.56;69.72
73748;BME280;62056;52.130;5.428;2022-11-14T00:06:18;101904.53;;;5.56;73.07
73748;BME280;62056;52.130;5.428;2022-11-14T00:08:45;101897.66;;;5.55;70.64
73748;BME280;62056;52.130;5.428;2022-11-14T00:11:12;101889.94;;;5.54;70.97
73748;BME280;62056;52.130;5.428;2022-11-14T00:13:38;101887.56;;;5.52;70.58
73748;BME280;62056;52.130;5.428;2022-11-14T00:16:05;101893.84;;;5.51;71.09
73748;BME280;62056;52.130;5.428;2022-11-14T00:18:31;101895.91;;;5.49;70.14
73748;BME280;62056;52.130;5.428;2022-11-14T00:20:58;101893.28;;;5.49;71.50
73748;BME280;62056;52.130;5.428;2022-11-14T00:23:25;101887.19;;;5.48;72.15
73748;BME280;62056;52.130;5.428;2022-11-14T00:25:51;101897.16;;;5.46;70.98
73748;BME280;62056;52.130;5.428;2022-11-14T00:28:18;101892.91;;;5.45;72.92
73748;BME280;62056;52.130;5.428;2022-11-14T00:30:46;101886.03;;;5.44;70.93
73748;BME280;62056;52.130;5.428;2022-11-14T00:33:13;101886.25;;;5.43;70.25
73748;BME280;62056;52.130;5.428;2022-11-14T00:35:51;101891.53;;;5.43;71.50
73748;BME280;62056;52.130;5.428;2022-11-14T00:38:18;101892.78;;;5.40;71.07
73748;BME280;62056;52.130;5.428;2022-11-14T00:40:45;101899.34;;;5.38;70.51
73748;BME280;62056;52.130;5.428;2022-11-14T00:43:11;101894.50;;;5.35;70.67
73748;BME280;62056;52.130;5.428;2022-11-14T00:45:38;101898.97;;;5.34;70.63
73748;BME280;62056;52.130;5.428;2022-11-14T00:48:05;101901.03;;;5.32;71.48
73748;BME280;62056;52.130;5.428;2022-11-14T00:50:31;101899.41;;;5.31;73.30
73748;BME280;62056;52.130;5.428;2022-11-14T00:52:58;101899.66;;;5.30;73.23
73748;BME280;62056;52.130;5.428;2022-11-14T00:55:24;101890.91;;;5.29;71.60
73748;BME280;62056;52.130;5.428;2022-11-14T00:57:51;101892.16;;;5.26;71.88
73748;BME280;62056;52.130;5.428;2022-11-14T01:00:17;101880.03;;;5.25;71.94
73748;BME280;62056;52.130;5.428;2022-11-14T01:02:44;101874.38;;;5.22;72.13
73748;BME280;62056;52.130;5.428;2022-11-14T01:05:11;101880.47;;;5.22;73.92
73748;BME280;62056;52.130;5.428;2022-11-14T01:07:37;101873.59;;;5.21;74.31
73748;BME280;62056;52.130;5.428;2022-11-14T01:10:05;101867.16;;;5.17;72.62
73748;BME280;62056;52.130;5.428;2022-11-14T01:12:32;101860.25;;;5.16;72.71
73748;BME280;62056;52.130;5.428;2022-11-14T01:14:59;101858.09;;;5.13;74.33
73748;BME280;62056;52.130;5.428;2022-11-14T01:17:26;101852.00;;;5.13;73.32
73748;BME280;62056;52.130;5.428;2022-11-14T01:19:53;101855.44;;;5.13;73.87
73748;BME280;62056;52.130;5.428;2022-11-14T01:22:20;101861.16;;;5.10;73.82
73748;BME280;62056;52.130;5.428;2022-11-14T01:24:46;101854.28;;;5.09;75.60
73748;BME280;62056;52.130;5.428;2022-11-14T01:27:13;101847.63;;;5.06;74.21
73748;BME280;62056;52.130;5.428;2022-11-14T01:29:40;101839.94;;;5.05;75.56
73748;BME280;62056;52.130;5.428;2022-11-14T01:32:06;101839.34;;;5.03;73.79
73748;BME280;62056;52.130;5.428;2022-11-14T01:34:33;101833.50;;;5.01;73.94
73748;BME280;62056;52.130;5.428;2022-11-14T01:36:59;101821.59;;;4.98;76.28
73748;BME280;62056;52.130;5.428;2022-11-14T01:39:26;101818.13;;;4.98;75.34
73748;BME280;62056;52.130;5.428;2022-11-14T01:41:52;101819.16;;;4.97;77.51
73748;BME280;62056;52.130;5.428;2022-11-14T01:47:11;101818.81;;;4.93;75.53
73748;BME280;62056;52.130;5.428;2022-11-14T01:49:42;101821.09;;;4.90;76.56
73748;BME280;62056;52.130;5.428;2022-11-14T01:52:18;101808.13;;;4.88;76.42
73748;BME280;62056;52.130;5.428;2022-11-14T01:54:49;101806.75;;;4.85;74.38
73748;BME280;62056;52.130;5.428;2022-11-14T01:57:20;101809.59;;;4.84;74.84
73748;BME280;62056;52.130;5.428;2022-11-14T01:59:51;101799.28;;;4.82;73.90
73748;BME280;62056;52.130;5.428;2022-11-14T02:02:21;101790.78;;;4.80;74.03
73748;BME280;62056;52.130;5.428;2022-11-14T02:04:52;101780.47;;;4.79;76.11
73748;BME280;62056;52.130;5.428;2022-11-14T02:07:21;101788.63;;;4.77;74.66
73748;BME280;62056;52.130;5.428;2022-11-14T02:09:50;101777.50;;;4.75;74.90
73748;BME280;62056;52.130;5.428;2022-11-14T02:12:18;101776.91;;;4.73;74.36
73748;BME280;62056;52.130;5.428;2022-11-14T02:14:48;101783.41;;;4.71;73.66
73748;BME280;62056;52.130;5.428;2022-11-14T02:17:16;101777.56;;;4.69;74.91
73748;BME280;62056;52.130;5.428;2022-11-14T02:22:31;101771.97;;;4.65;74.48
73748;BME280;62056;52.130;5.428;2022-11-14T02:24:57;101776.66;;;4.63;74.17
73748;BME280;62056;52.130;5.428;2022-11-14T02:27:24;101770.78;;;4.61;74.95
73748;BME280;62056;52.130;5.428;2022-11-14T02:29:50;101768.38;;;4.59;75.16
73748;BME280;62056;52.130;5.428;2022-11-14T02:32:17;101769.63;;;4.57;74.52
73748;BME280;62056;52.130;5.428;2022-11-14T02:34:44;101760.34;;;4.54;74.84
73748;BME280;62056;52.130;5.428;2022-11-14T02:37:10;101760.56;;;4.53;75.18
73748;BME280;62056;52.130;5.428;2022-11-14T02:39:37;101762.63;;;4.51;75.03
73748;BME280;62056;52.130;5.428;2022-11-14T02:42:04;101755.97;;;4.48;74.36
73748;BME280;62056;52.130;5.428;2022-11-14T02:44:30;101764.88;;;4.47;74.27
73748;BME280;62056;52.130;5.428;2022-11-14T02:46:57;101757.44;;;4.44;75.01
73748;BME280;62056;52.130;5.428;2022-11-14T02:49:24;101762.94;;;4.42;75.59
73748;BME280;62056;52.130;5.428;2022-11-14T02:51:50;101763.13;;;4.41;75.30
73748;BME280;62056;52.130;5.428;2022-11-14T02:54:17;101757.28;;;4.39;75.23
73748;BME280;62056;52.130;5.428;2022-11-14T02:56:43;101760.38;;;4.36;75.30
73748;BME280;62056;52.130;5.428;2022-11-14T02:59:10;101749.84;;;4.36;76.51
73748;BME280;62056;52.130;5.428;2022-11-14T03:01:36;101759.78;;;4.34;75.78
73748;BME280;62056;52.130;5.428;2022-11-14T03:04:03;101753.94;;;4.32;75.75
73748;BME280;62056;52.130;5.428;2022-11-14T03:06:29;101759.63;;;4.29;74.73
73748;BME280;62056;52.130;5.428;2022-11-14T03:08:56;101757.22;;;4.27;77.54
73748;BME280;62056;52.130;5.428;2022-11-14T03:11:23;101750.56;;;4.24;76.44
73748;BME280;62056;52.130;5.428;2022-11-14T03:13:49;101752.63;;;4.22;75.66
73748;BME280;62056;52.130;5.428;2022-11-14T03:16:16;101742.34;;;4.21;75.58
73748;BME280;62056;52.130;5.428;2022-11-14T03:18:42;101737.28;;;4.19;75.64
73748;BME280;62056;52.130;5.428;2022-11-14T03:21:14;101735.91;;;4.17;74.93
73748;BME280;62056;52.130;5.428;2022-11-14T03:23:43;101729.22;;;4.14;76.23
73748;BME280;62056;52.130;5.428;2022-11-14T03:26:11;101731.28;;;4.12;76.45
73748;BME280;62056;52.130;5.428;2022-11-14T03:28:38;101729.91;;;4.10;75.78
73748;BME280;62056;52.130;5.428;2022-11-14T03:31:05;101738.84;;;4.09;75.42
73748;BME280;62056;52.130;5.428;2022-11-14T03:33:32;101732.97;;;4.07;76.13
73748;BME280;62056;52.130;5.428;2022-11-14T03:35:59;101729.75;;;4.04;75.71
73748;BME280;62056;52.130;5.428;2022-11-14T03:38:26;101716.81;;;4.03;75.59
73748;BME280;62056;52.130;5.428;2022-11-14T03:40:53;101713.81;;;3.99;75.78
73748;BME280;62056;52.130;5.428;2022-11-14T03:43:20;101709.59;;;3.98;76.10
73748;BME280;62056;52.130;5.428;2022-11-14T03:45:47;101710.59;;;3.97;75.66
73748;BME280;62056;52.130;5.428;2022-11-14T03:48:14;101711.84;;;3.95;75.78
73748;BME280;62056;52.130;5.428;2022-11-14T03:50:41;101707.63;;;3.94;78.09
73748;BME280;62056;52.130;5.428;2022-11-14T03:53:09;101701.78;;;3.92;77.21
73748;BME280;62056;52.130;5.428;2022-11-14T03:55:36;101702.00;;;3.90;76.86
73748;BME280;62056;52.130;5.428;2022-11-14T03:58:04;101708.25;;;3.89;76.57
73748;BME280;62056;52.130;5.428;2022-11-14T04:00:31;101700.03;;;3.85;76.06
73748;BME280;62056;52.130;5.428;2022-11-14T04:02:57;101690.72;;;3.83;75.42
73748;BME280;62056;52.130;5.428;2022-11-14T04:05:24;101694.38;;;3.82;75.78
73748;BME280;62056;52.130;5.428;2022-11-14T04:07:50;101691.97;;;3.80;75.99
73748;BME280;62056;52.130;5.428;2022-11-14T04:10:17;101692.19;;;3.79;75.65
73748;BME280;62056;52.130;5.428;2022-11-14T04:12:48;101701.09;;;3.78;76.37
73748;BME280;62056;52.130;5.428;2022-11-14T04:15:16;101691.25;;;3.73;75.60
73748;BME280;62056;52.130;5.428;2022-11-14T04:17:44;101693.06;;;3.73;77.18
73748;BME280;62056;52.130;5.428;2022-11-14T04:20:11;101683.56;;;3.72;76.94
73748;BME280;62056;52.130;5.428;2022-11-14T04:22:39;101677.50;;;3.71;77.79
73748;BME280;62056;52.130;5.428;2022-11-14T04:25:06;101672.25;;;3.71;76.58
73748;BME280;62056;52.130;5.428;2022-11-14T04:27:33;101679.31;;;3.71;75.78
73748;BME280;62056;52.130;5.428;2022-11-14T04:30:00;101675.31;;;3.68;77.96
73748;BME280;62056;52.130;5.428;2022-11-14T04:32:27;101678.97;;;3.67;77.38
73748;BME280;62056;52.130;5.428;2022-11-14T04:34:54;101677.34;;;3.66;78.13
73748;BME280;62056;52.130;5.428;2022-11-14T04:37:20;101674.72;;;3.66;76.80
73748;BME280;62056;52.130;5.428;2022-11-14T04:39:47;101674.13;;;3.64;78.46
73748;BME280;62056;52.130;5.428;2022-11-14T04:42:13;101672.53;;;3.63;78.31
73748;BME280;62056;52.130;5.428;2022-11-14T04:44:40;101662.44;;;3.60;77.75
73748;BME280;62056;52.130;5.428;2022-11-14T04:47:12;101666.91;;;3.59;78.14
73748;BME280;62056;52.130;5.428;2022-11-14T04:49:53;101660.06;;;3.58;77.70
73748;BME280;62056;52.130;5.428;2022-11-14T04:52:19;101652.16;;;3.58;77.97
73748;BME280;62056;52.130;5.428;2022-11-14T04:54:46;101651.56;;;3.56;77.04
73748;BME280;62056;52.130;5.428;2022-11-14T04:57:12;101643.09;;;3.54;77.74
73748;BME280;62056;52.130;5.428;2022-11-14T04:59:39;101651.19;;;3.53;77.79
73748;BME280;62056;52.130;5.428;2022-11-14T05:02:06;101646.16;;;3.51;76.64
73748;BME280;62056;52.130;5.428;2022-11-14T05:04:32;101648.19;;;3.49;77.34
73748;BME280;62056;52.130;5.428;2022-11-14T05:06:59;101646.59;;;3.48;77.48
73748;BME280;62056;52.130;5.428;2022-11-14T05:09:25;101641.75;;;3.45;77.57
73748;BME280;62056;52.130;5.428;2022-11-14T05:11:52;101632.50;;;3.42;77.36
73748;BME280;62056;52.130;5.428;2022-11-14T05:14:19;101635.31;;;3.41;77.79
73748;BME280;62056;52.130;5.428;2022-11-14T05:16:45;101634.75;;;3.39;77.00
73748;BME280;62056;52.130;5.428;2022-11-14T05:19:12;101631.53;;;3.37;78.22
73748;BME280;62056;52.130;5.428;2022-11-14T05:21:39;101624.69;;;3.36;77.86
73748;BME280;62056;52.130;5.428;2022-11-14T05:24:05;101629.34;;;3.34;76.85
73748;BME280;62056;52.130;5.428;2022-11-14T05:26:32;101628.53;;;3.33;77.58
73748;BME280;62056;52.130;5.428;2022-11-14T05:28:58;101622.69;;;3.31;77.00
73748;BME280;62056;52.130;5.428;2022-11-14T05:31:25;101629.97;;;3.29;76.67
73748;BME280;62056;52.130;5.428;2022-11-14T05:33:52;101626.78;;;3.27;77.04
73748;BME280;62056;52.130;5.428;2022-11-14T05:36:18;101624.38;;;3.26;78.13
73748;BME280;62056;52.130;5.428;2022-11-14T05:38:45;101620.38;;;3.23;78.17
73748;BME280;62056;52.130;5.428;2022-11-14T05:41:14;101623.41;;;3.20;78.70
73748;BME280;62056;52.130;5.428;2022-11-14T05:43:42;101622.81;;;3.18;77.33
73748;BME280;62056;52.130;5.428;2022-11-14T05:46:12;101624.66;;;3.17;77.60
73748;BME280;62056;52.130;5.428;2022-11-14T05:48:39;101624.88;;;3.16;77.77
73748;BME280;62056;52.130;5.428;2022-11-14T05:51:08;101618.22;;;3.13;78.77
73748;BME280;62056;52.130;5.428;2022-11-14T05:53:35;101622.88;;;3.11;79.18
73748;BME280;62056;52.130;5.428;2022-11-14T05:56:06;101618.88;;;3.09;78.44
73748;BME280;62056;52.130;5.428;2022-11-14T05:58:34;101617.47;;;3.06;77.68
73748;BME280;62056;52.130;5.428;2022-11-14T06:01:03;101619.28;;;3.06;78.30
73748;BME280;62056;52.130;5.428;2022-11-14T06:03:32;101617.91;;;3.03;78.15
73748;BME280;62056;52.130;5.428;2022-11-14T06:06:00;101608.66;;;3.00;78.68
73748;BME280;62056;52.130;5.428;2022-11-14T06:08:28;101607.81;;;3.00;78.49
73748;BME280;62056;52.130;5.428;2022-11-14T06:10:56;101608.06;;;2.98;78.69
73748;BME280;62056;52.130;5.428;2022-11-14T06:13:26;101611.69;;;2.97;78.95
73748;BME280;62056;52.130;5.428;2022-11-14T06:15:57;101604.59;;;2.98;78.49
73748;BME280;62056;52.130;5.428;2022-11-14T06:18:25;101608.25;;;2.97;78.32
73748;BME280;62056;52.130;5.428;2022-11-14T06:20:52;101606.09;;;2.94;78.67
73748;BME280;62056;52.130;5.428;2022-11-14T06:23:18;101597.38;;;2.93;78.12
73748;BME280;62056;52.130;5.428;2022-11-14T06:25:50;101599.41;;;2.91;77.83
73748;BME280;62056;52.130;5.428;2022-11-14T06:28:16;101597.81;;;2.90;78.31
73748;BME280;62056;52.130;5.428;2022-11-14T06:30:43;101594.59;;;2.88;77.66
73748;BME280;62056;52.130;5.428;2022-11-14T06:33:09;101608.53;;;2.89;78.12
73748;BME280;62056;52.130;5.428;2022-11-14T06:35:36;101604.53;;;2.86;78.42
73748;BME280;62056;52.130;5.428;2022-11-14T06:38:02;101598.47;;;2.86;78.13
73748;BME280;62056;52.130;5.428;2022-11-14T06:40:29;101608.16;;;2.85;79.26
73748;BME280;62056;52.130;5.428;2022-11-14T06:42:55;101610.19;;;2.83;78.98
73748;BME280;62056;52.130;5.428;2022-11-14T06:45:22;101615.09;;;2.79;77.76
73748;BME280;62056;52.130;5.428;2022-11-14T06:47:48;101609.00;;;2.79;78.77
73748;BME280;62056;52.130;5.428;2022-11-14T06:50:17;101617.13;;;2.77;78.09
73748;BME280;62056;52.130;5.428;2022-11-14T06:52:44;101613.69;;;2.77;78.56
73748;BME280;62056;52.130;5.428;2022-11-14T06:55:10;101622.22;;;2.72;78.78
73748;BME280;62056;52.130;5.428;2022-11-14T06:57:37;101615.94;;;2.73;78.82
73748;BME280;62056;52.130;5.428;2022-11-14T07:00:04;101614.53;;;2.71;78.98
73748;BME280;62056;52.130;5.428;2022-11-14T07:02:30;101617.16;;;2.71;78.69
73748;BME280;62056;52.130;5.428;2022-11-14T07:04:57;101618.19;;;2.70;78.16
73748;BME280;62056;52.130;5.428;2022-11-14T07:07:24;101615.56;;;2.70;78.95
73748;BME280;62056;52.130;5.428;2022-11-14T07:09:51;101611.31;;;2.69;77.85
73748;BME280;62056;52.130;5.428;2022-11-14T07:12:19;101612.16;;;2.69;79.76
73748;BME280;62056;52.130;5.428;2022-11-14T07:14:46;101609.72;;;2.68;78.99
73748;BME280;62056;52.130;5.428;2022-11-14T07:17:12;101612.16;;;2.69;79.88
73748;BME280;62056;52.130;5.428;2022-11-14T07:19:39;101617.59;;;2.68;79.18
73748;BME280;62056;52.130;5.428;2022-11-14T07:22:06;101609.72;;;2.68;79.05
73748;BME280;62056;52.130;5.428;2022-11-14T07:24:32;101621.81;;;2.69;77.67
73748;BME280;62056;52.130;5.428;2022-11-14T07:26:59;101624.69;;;2.67;79.35
73748;BME280;62056;52.130;5.428;2022-11-14T07:29:27;101631.53;;;2.68;79.23
73748;BME280;62056;52.130;5.428;2022-11-14T07:31:54;101629.94;;;2.67;78.93
73748;BME280;62056;52.130;5.428;2022-11-14T07:34:21;101623.44;;;2.70;78.97
73748;BME280;62056;52.130;5.428;2022-11-14T07:36:47;101630.69;;;2.74;79.66
73748;BME280;62056;52.130;5.428;2022-11-14T07:39:15;101619.31;;;2.80;81.14
73748;BME280;62056;52.130;5.428;2022-11-14T07:41:42;101618.25;;;2.88;81.33
73748;BME280;62056;52.130;5.428;2022-11-14T07:44:09;101623.44;;;2.95;80.65
73748;BME280;62056;52.130;5.428;2022-11-14T07:46:35;101618.72;;;3.03;81.53
73748;BME280;62056;52.130;5.428;2022-11-14T07:49:02;101620.84;;;3.13;82.02
73748;BME280;62056;52.130;5.428;2022-11-14T07:51:28;101615.53;;;3.20;81.87
73748;BME280;62056;52.130;5.428;2022-11-14T07:53:55;101623.13;;;3.28;82.45
73748;BME280;62056;52.130;5.428;2022-11-14T07:56:21;101612.31;;;3.36;82.84
73748;BME280;62056;52.130;5.428;2022-11-14T07:58:48;101604.16;;;3.44;83.25
73748;BME280;62056;52.130;5.428;2022-11-14T08:01:15;101603.06;;;3.52;83.27
73748;BME280;62056;52.130;5.428;2022-11-14T08:03:41;101603.56;;;3.61;83.24
73748;BME280;62056;52.130;5.428;2022-11-14T08:06:13;101596.16;;;3.70;83.52
73748;BME280;62056;52.130;5.428;2022-11-14T08:08:41;101602.72;;;3.79;83.89
73748;BME280;62056;52.130;5.428;2022-11-14T08:11:07;101598.41;;;3.84;84.16
73748;BME280;62056;52.130;5.428;2022-11-14T08:13:34;101586.78;;;3.92;84.25
73748;BME280;62056;52.130;5.428;2022-11-14T08:16:08;101587.69;;;3.98;83.10
73748;BME280;62056;52.130;5.428;2022-11-14T08:18:39;101590.25;;;4.04;83.64
73748;BME280;62056;52.130;5.428;2022-11-14T08:21:07;101581.69;;;4.09;83.21
73748;BME280;62056;52.130;5.428;2022-11-14T08:23:33;101578.16;;;4.15;83.28
73748;BME280;62056;52.130;5.428;2022-11-14T08:26:00;101583.53;;;4.20;83.35
73748;BME280;62056;52.130;5.428;2022-11-14T08:28:27;101575.19;;;4.23;84.09
73748;BME280;62056;52.130;5.428;2022-11-14T08:31:01;101570.84;;;4.29;83.63
73748;BME280;62056;52.130;5.428;2022-11-14T08:33:29;101577.63;;;4.37;84.22
73748;BME280;62056;52.130;5.428;2022-11-14T08:36:02;101578.78;;;4.41;83.84
73748;BME280;62056;52.130;5.428;2022-11-14T08:38:32;101567.34;;;4.47;83.84
73748;BME280;62056;52.130;5.428;2022-11-14T08:41:00;101570.31;;;4.51;84.87
73748;BME280;62056;52.130;5.428;2022-11-14T08:43:27;101573.06;;;4.56;83.25
73748;BME280;62056;52.130;5.428;2022-11-14T08:45:58;101574.78;;;4.62;84.33
73748;BME280;62056;52.130;5.428;2022-11-14T08:48:27;101564.38;;;4.67;83.46
73748;BME280;62056;52.130;5.428;2022-11-14T08:50:54;101564.28;;;4.74;83.71
73748;BME280;62056;52.130;5.428;2022-11-14T08:53:22;101556.47;;;4.79;83.68
73748;BME280;62056;52.130;5.428;2022-11-14T08:55:48;101551.09;;;4.85;83.23
73748;BME280;62056;52.130;5.428;2022-11-14T08:58:15;101556.25;;;4.92;83.67
73748;BME280;62056;52.130;5.428;2022-11-14T09:00:41;101553.94;;;4.96;83.41
73748;BME280;62056;52.130;5.428;2022-11-14T09:03:09;101553.84;;;5.02;83.16
73748;BME280;62056;52.130;5.428;2022-11-14T09:05:37;101556.34;;;5.09;82.68
73748;BME280;62056;52.130;5.428;2022-11-14T09:08:03;101559.66;;;5.16;84.43
73748;BME280;62056;52.130;5.428;2022-11-14T09:10:30;101556.56;;;5.19;82.93
73748;BME280;62056;52.130;5.428;2022-11-14T09:12:58;101550.34;;;5.25;82.87
73748;BME280;62056;52.130;5.428;2022-11-14T09:15:27;101550.22;;;5.32;82.77
73748;BME280;62056;52.130;5.428;2022-11-14T09:17:55;101551.94;;;5.38;82.67
73748;BME280;62056;52.130;5.428;2022-11-14T09:20:23;101548.34;;;5.44;82.65
73748;BME280;62056;52.130;5.428;2022-11-14T09:23:00;101548.22;;;5.51;81.77
73748;BME280;62056;52.130;5.428;2022-11-14T09:25:28;101547.28;;;5.57;82.03
73748;BME280;62056;52.130;5.428;2022-11-14T09:27:55;101543.69;;;5.63;81.79
73748;BME280;62056;52.130;5.428;2022-11-14T09:30:22;101534.84;;;5.70;82.71
73748;BME280;62056;52.130;5.428;2022-11-14T09:32:49;101538.13;;;5.77;82.40
73748;BME280;62056;52.130;5.428;2022-11-14T09:35:16;101525.84;;;5.82;82.63
73748;BME280;62056;52.130;5.428;2022-11-14T09:37:42;101528.31;;;5.89;82.68
73748;BME280;62056;52.130;5.428;2022-11-14T09:40:11;101526.59;;;5.95;82.09
73748;BME280;62056;52.130;5.428;2022-11-14T09:43:05;101522.53;;;6.04;83.11
73748;BME280;62056;52.130;5.428;2022-11-14T09:45:41;101523.97;;;6.12;82.13
73748;BME280;62056;52.130;5.428;2022-11-14T09:48:13;101515.91;;;6.18;83.48
73748;BME280;62056;52.130;5.428;2022-11-14T09:51:14;101508.69;;;6.31;82.46
73748;BME280;62056;52.130;5.428;2022-11-14T09:54:00;101519.41;;;6.41;82.52
73748;BME280;62056;52.130;5.428;2022-11-14T09:56:36;101507.16;;;6.52;83.55
73748;BME280;62056;52.130;5.428;2022-11-14T09:59:08;101502.53;;;6.59;81.69
73748;BME280;62056;52.130;5.428;2022-11-14T10:01:44;101505.03;;;6.71;82.39
73748;BME280;62056;52.130;5.428;2022-11-14T10:07:17;101513.47;;;6.89;82.46
73748;BME280;62056;52.130;5.428;2022-11-14T10:10:28;101510.19;;;6.99;81.49
73748;BME280;62056;52.130;5.428;2022-11-14T10:16:16;101493.47;;;7.16;81.89
73748;BME280;62056;52.130;5.428;2022-11-14T10:21:57;101488.09;;;7.33;81.55
73748;BME280;62056;52.130;5.428;2022-11-14T10:24:54;101494.00;;;7.40;80.47
73748;BME280;62056;52.130;5.428;2022-11-14T10:27:32;101493.81;;;7.46;80.79
73748;BME280;62056;52.130;5.428;2022-11-14T10:30:15;101489.38;;;7.52;81.46
73748;BME280;62056;52.130;5.428;2022-11-14T10:35:21;101478.84;;;7.62;80.18
73748;BME280;62056;52.130;5.428;2022-11-14T10:38:18;101474.72;;;7.72;81.88
73748;BME280;62056;52.130;5.428;2022-11-14T10:40:52;101476.59;;;7.76;81.12
73748;BME280;62056;52.130;5.428;2022-11-14T10:46:10;101462.91;;;7.84;80.37
73748;BME280;62056;52.130;5.428;2022-11-14T10:48:43;101465.34;;;7.91;80.59
73748;BME280;62056;52.130;5.428;2022-11-14T10:51:41;101468.84;;;7.97;80.92
73748;BME280;62056;52.130;5.428;2022-11-14T10:57:00;101451.69;;;8.04;80.10
73748;BME280;62056;52.130;5.428;2022-11-14T10:59:27;101450.94;;;8.09;80.44
73748;BME280;62056;52.130;5.428;2022-11-14T11:01:56;101444.06;;;8.13;78.59
73748;BME280;62056;52.130;5.428;2022-11-14T11:04:31;101439.06;;;8.17;78.66
73748;BME280;62056;52.130;5.428;2022-11-14T11:09:33;101440.16;;;8.26;80.62
73748;BME280;62056;52.130;5.428;2022-11-14T11:18:01;101434.94;;;8.36;77.93
73748;BME280;62056;52.130;5.428;2022-11-14T11:20:38;101430.97;;;8.39;78.66
73748;BME280;62056;52.130;5.428;2022-11-14T11:23:29;101436.84;;;8.41;76.86
73748;BME280;62056;52.130;5.428;2022-11-14T11:26:05;101423.34;;;8.42;78.85
73748;BME280;62056;52.130;5.428;2022-11-14T11:28:35;101419.63;;;8.43;78.50
73748;BME280;62056;52.130;5.428;2022-11-14T11:31:05;101412.75;;;8.47;78.76
73748;BME280;62056;52.130;5.428;2022-11-14T11:33:34;101405.34;;;8.49;78.64
73748;BME280;62056;52.130;5.428;2022-11-14T11:36:14;101406.16;;;8.50;77.66
73748;BME280;62056;52.130;5.428;2022-11-14T11:38:41;101405.88;;;8.51;75.55
73748;BME280;62056;52.130;5.428;2022-11-14T11:44:04;101405.38;;;8.60;78.13
73748;BME280;62056;52.130;5.428;2022-11-14T11:46:42;101403.03;;;8.63;77.57
73748;BME280;62056;52.130;5.428;2022-11-14T11:49:23;101416.56;;;8.67;76.29
73748;BME280;62056;52.130;5.428;2022-11-14T11:51:55;101410.50;;;8.71;77.93
73748;BME280;62056;52.130;5.428;2022-11-14T11:54:30;101405.72;;;8.74;77.90
73748;BME280;62056;52.130;5.428;2022-11-14T11:57:04;101406.78;;;8.78;77.54
73748;BME280;62056;52.130;5.428;2022-11-14T11:59:40;101409.44;;;8.78;76.51
73748;BME280;62056;52.130;5.428;2022-11-14T12:02:22;101412.38;;;8.81;76.66
73748;BME280;62056;52.130;5.428;2022-11-14T12:04:50;101412.94;;;8.83;76.98
73748;BME280;62056;52.130;5.428;2022-11-14T12:07:21;101403.09;;;8.84;75.28
73748;BME280;62056;52.130;5.428;2022-11-14T12:09:49;101397.28;;;8.87;77.09
73748;BME280;62056;52.130;5.428;2022-11-14T12:12:54;101397.56;;;8.90;77.56
73748;BME280;62056;52.130;5.428;2022-11-14T12:15:43;101401.78;;;8.91;76.21
73748;BME280;62056;52.130;5.428;2022-11-14T12:18:30;101404.97;;;8.94;76.94
73748;BME280;62056;52.130;5.428;2022-11-14T12:24:07;101409.25;;;8.95;75.18
73748;BME280;62056;52.130;5.428;2022-11-14T12:27:11;101405.00;;;8.99;75.73
73748;BME280;62056;52.130;5.428;2022-11-14T12:30:08;101410.59;;;9.02;76.20
73748;BME280;62056;52.130;5.428;2022-11-14T12:32:43;101399.69;;;9.04;77.08
73748;BME280;62056;52.130;5.428;2022-11-14T12:35:22;101396.53;;;9.07;76.87
73748;BME280;62056;52.130;5.428;2022-11-14T12:37:52;101391.78;;;9.09;76.25
73748;BME280;62056;52.130;5.428;2022-11-14T12:40:52;101399.72;;;9.14;76.14
73748;BME280;62056;52.130;5.428;2022-11-14T12:43:31;101401.88;;;9.17;75.21
73748;BME280;62056;52.130;5.428;2022-11-14T12:46:04;101389.94;;;9.20;76.80
73748;BME280;62056;52.130;5.428;2022-11-14T12:48:37;101382.78;;;9.25;76.10
73748;BME280;62056;52.130;5.428;2022-11-14T12:51:47;101377.19;;;9.27;76.34
73748;BME280;62056;52.130;5.428;2022-11-14T12:53:53;101378.25;;;9.31;76.47
73748;BME280;62056;52.130;5.428;2022-11-14T12:59:26;101395.78;;;9.37;76.26
73748;BME280;62056;52.130;5.428;2022-11-14T13:05:16;101378.00;;;9.32;74.20
73748;BME280;62056;52.130;5.428;2022-11-14T13:08:15;101383.84;;;9.35;75.50
73748;BME280;62056;52.130;5.428;2022-11-14T13:10:47;101371.09;;;9.26;74.86
73748;BME280;62056;52.130;5.428;2022-11-14T13:13:15;101391.00;;;9.29;74.58
73748;BME280;62056;52.130;5.428;2022-11-14T13:16:02;101372.41;;;9.24;75.61
73748;BME280;62056;52.130;5.428;2022-11-14T13:19:20;101372.13;;;9.20;74.92
73748;BME280;62056;52.130;5.428;2022-11-14T13:22:37;101361.00;;;9.18;73.94
73748;BME280;62056;52.130;5.428;2022-11-14T13:25:30;101359.91;;;9.14;74.41
73748;BME280;62056;52.130;5.428;2022-11-14T13:31:17;101343.25;;;9.19;75.46
73748;BME280;62056;52.130;5.428;2022-11-14T13:33:46;101333.94;;;9.16;74.25
73748;BME280;62056;52.130;5.428;2022-11-14T13:42:53;101325.44;;;9.19;74.36
73748;BME280;62056;52.130;5.428;2022-11-14T13:50:56;101319.34;;;9.19;74.81
73748;BME280;62056;52.130;5.428;2022-11-14T13:53:44;101316.16;;;9.17;74.15
73748;BME280;62056;52.130;5.428;2022-11-14T14:05:18;101306.34;;;9.22;74.91
73748;BME280;62056;52.130;5.428;2022-11-14T14:08:13;101316.41;;;9.20;72.75
73748;BME280;62056;52.130;5.428;2022-11-14T14:11:18;101327.56;;;9.22;73.29
73748;BME280;62056;52.130;5.428;2022-11-14T14:16:49;101324.91;;;9.22;73.46
73748;BME280;62056;52.130;5.428;2022-11-14T14:30:16;101334.47;;;9.13;74.14
73748;BME280;62056;52.130;5.428;2022-11-14T14:33:08;101324.91;;;9.12;73.77
73748;BME280;62056;52.130;5.428;2022-11-14T14:35:36;101318.53;;;9.08;73.68
73748;BME280;62056;52.130;5.428;2022-11-14T14:38:21;101322.25;;;9.07;74.37
73748;BME280;62056;52.130;5.428;2022-11-14T14:40:49;101314.81;;;9.04;74.48